sensor_id;sensor_type;location;lat;lon;timestamp;pressure;altitude;pressure_sealevel;temperature;humidity
706;BME280;21234;48.690;9.016;2023-02-17T00:01:19;96951.03;;;7.72;61.78
706;BME280;21234;48.690;9.016;2023-02-17T00:03:45;96951.44;;;7.75;61.94
706;BME280;21234;48.690;9.016;2023-02-17T00:06:14;96954.97;;;7.76;61.88
706;BME280;21234;48.690;9.016;2023-02-17T00:08:41;96960.38;;;7.76;62.11
706;BME280;21234;48.690;9.016;2023-02-17T00:11:10;96964.97;;;7.75;62.41
706;BME280;21234;48.690;9.016;2023-02-17T00:13:37;96953.53;;;7.73;62.51
706;BME280;21234;48.690;9.016;2023-02-17T00:16:08;96956.84;;;7.75;62.60
706;BME280;21234;48.690;9.016;2023-02-17T00:18:35;96954.13;;;7.75;62.88
706;BME280;21234;48.690;9.016;2023-02-17T00:21:10;96954.53;;;7.79;62.89
706;BME280;21234;48.690;9.016;2023-02-17T00:23:37;96952.66;;;7.80;62.90
706;BME280;21234;48.690;9.016;2023-02-17T00:26:04;96951.16;;;7.84;63.11
706;BME280;21234;48.690;9.016;2023-02-17T00:28:32;96943.25;;;7.82;63.22
706;BME280;21234;48.690;9.016;2023-02-17T00:30:59;96939.94;;;7.80;63.68
706;BME280;21234;48.690;9.016;2023-02-17T00:33:30;96944.47;;;7.86;63.50
706;BME280;21234;48.690;9.016;2023-02-17T00:35:57;96940.75;;;7.81;64.22
706;BME280;21234;48.690;9.016;2023-02-17T00:38:23;96949.13;;;7.79;64.29
706;BME280;21234;48.690;9.016;2023-02-17T00:40:50;96944.91;;;7.83;64.20
706;BME280;21234;48.690;9.016;2023-02-17T00:43:17;96935.75;;;7.84;64.26
706;BME280;21234;48.690;9.016;2023-02-17T00:45:45;96939.50;;;7.83;64.46
706;BME280;21234;48.690;9.016;2023-02-17T00:48:11;96944.09;;;7.83;64.44
706;BME280;21234;48.690;9.016;2023-02-17T00:50:38;96939.06;;;7.86;64.34
706;BME280;21234;48.690;9.016;2023-02-17T00:53:05;96937.81;;;7.89;64.29
706;BME280;21234;48.690;9.016;2023-02-17T00:55:32;96938.44;;;7.84;64.67
706;BME280;21234;48.690;9.016;2023-02-17T00:57:58;96944.47;;;7.86;64.96
706;BME280;21234;48.690;9.016;2023-02-17T01:00:25;96939.06;;;7.86;65.01
706;BME280;21234;48.690;9.016;2023-02-17T01:02:53;96943.44;;;7.87;64.74
706;BME280;21234;48.690;9.016;2023-02-17T01:05:20;96944.06;;;7.89;65.24
706;BME280;21234;48.690;9.016;2023-02-17T01:07:47;96947.38;;;7.91;65.02
706;BME280;21234;48.690;9.016;2023-02-17T01:10:14;96941.34;;;7.89;65.04
706;BME280;21234;48.690;9.016;2023-02-17T01:12:40;96942.38;;;7.88;64.57
706;BME280;21234;48.690;9.016;2023-02-17T01:15:07;96940.31;;;7.90;64.83
706;BME280;21234;48.690;9.016;2023-02-17T01:17:34;96938.63;;;7.89;64.90
706;BME280;21234;48.690;9.016;2023-02-17T01:20:03;96933.25;;;7.83;65.15
706;BME280;21234;48.690;9.016;2023-02-17T01:22:30;96933.25;;;7.83;65.11
706;BME280;21234;48.690;9.016;2023-02-17T01:24:57;96922.22;;;7.84;65.00
706;BME280;21234;48.690;9.016;2023-02-17T01:27:24;96913.69;;;7.81;65.18
706;BME280;21234;48.690;9.016;2023-02-17T01:29:50;96919.50;;;7.84;64.68
706;BME280;21234;48.690;9.016;2023-02-17T01:32:17;96915.97;;;7.84;64.97
706;BME280;21234;48.690;9.016;2023-02-17T01:34:44;96917.06;;;7.76;64.69
706;BME280;21234;48.690;9.016;2023-02-17T01:37:12;96915.56;;;7.80;64.46
706;BME280;21234;48.690;9.016;2023-02-17T01:39:39;96915.13;;;7.83;63.72
706;BME280;21234;48.690;9.016;2023-02-17T01:42:13;96911.81;;;7.81;63.64
706;BME280;21234;48.690;9.016;2023-02-17T01:47:40;96909.69;;;7.90;63.73
706;BME280;21234;48.690;9.016;2023-02-17T01:50:07;96898.06;;;7.83;64.44
706;BME280;21234;48.690;9.016;2023-02-17T01:52:36;96899.72;;;7.84;64.44
706;BME280;21234;48.690;9.016;2023-02-17T01:55:07;96891.47;;;7.79;64.20
706;BME280;21234;48.690;9.016;2023-02-17T01:57:38;96888.50;;;7.80;64.17
706;BME280;21234;48.690;9.016;2023-02-17T02:00:07;96895.56;;;7.81;64.13
706;BME280;21234;48.690;9.016;2023-02-17T02:02:35;96884.16;;;7.79;64.36
706;BME280;21234;48.690;9.016;2023-02-17T02:05:02;96890.41;;;7.80;63.88
706;BME280;21234;48.690;9.016;2023-02-17T02:07:39;96896.25;;;7.77;64.03
706;BME280;21234;48.690;9.016;2023-02-17T02:10:08;96894.38;;;7.77;63.94
706;BME280;21234;48.690;9.016;2023-02-17T02:12:39;96896.47;;;7.75;63.39
706;BME280;21234;48.690;9.016;2023-02-17T02:15:09;96893.56;;;7.77;63.02
706;BME280;21234;48.690;9.016;2023-02-17T02:17:42;96889.13;;;7.82;63.31
706;BME280;21234;48.690;9.016;2023-02-17T02:20:38;96885.97;;;7.85;62.95
706;BME280;21234;48.690;9.016;2023-02-17T02:23:49;96881.34;;;7.92;63.17
706;BME280;21234;48.690;9.016;2023-02-17T02:26:48;96883.00;;;7.93;63.43
706;BME280;21234;48.690;9.016;2023-02-17T02:29:44;96889.28;;;7.87;63.62
706;BME280;21234;48.690;9.016;2023-02-17T02:35:25;96887.03;;;7.84;63.73
706;BME280;21234;48.690;9.016;2023-02-17T02:37:57;96876.19;;;7.84;63.93
706;BME280;21234;48.690;9.016;2023-02-17T02:40:30;96875.38;;;7.84;63.91
706;BME280;21234;48.690;9.016;2023-02-17T02:43:00;96864.31;;;7.85;64.20
706;BME280;21234;48.690;9.016;2023-02-17T02:45:28;96876.25;;;7.78;64.51
706;BME280;21234;48.690;9.016;2023-02-17T02:47:56;96864.38;;;7.79;64.29
706;BME280;21234;48.690;9.016;2023-02-17T02:50:30;96881.47;;;7.79;64.71
706;BME280;21234;48.690;9.016;2023-02-17T02:53:11;96867.13;;;7.72;64.57
706;BME280;21234;48.690;9.016;2023-02-17T02:55:51;96867.97;;;7.72;64.74
706;BME280;21234;48.690;9.016;2023-02-17T02:58:21;96865.03;;;7.74;64.67
706;BME280;21234;48.690;9.016;2023-02-17T03:00:55;96859.63;;;7.74;64.70
706;BME280;21234;48.690;9.016;2023-02-17T03:03:28;96865.47;;;7.71;64.82
706;BME280;21234;48.690;9.016;2023-02-17T03:06:05;96845.91;;;7.69;64.83
706;BME280;21234;48.690;9.016;2023-02-17T03:08:37;96847.34;;;7.71;64.54
706;BME280;21234;48.690;9.016;2023-02-17T03:11:05;96855.25;;;7.73;64.17
706;BME280;21234;48.690;9.016;2023-02-17T03:13:32;96847.13;;;7.73;64.46
706;BME280;21234;48.690;9.016;2023-02-17T03:16:04;96835.25;;;7.74;64.53
706;BME280;21234;48.690;9.016;2023-02-17T03:18:33;96834.44;;;7.73;64.59
706;BME280;21234;48.690;9.016;2023-02-17T03:21:03;96832.34;;;7.75;64.43
706;BME280;21234;48.690;9.016;2023-02-17T03:23:31;96831.50;;;7.75;64.72
706;BME280;21234;48.690;9.016;2023-02-17T03:25:58;96829.41;;;7.77;64.63
706;BME280;21234;48.690;9.016;2023-02-17T03:28:24;96817.75;;;7.77;64.81
706;BME280;21234;48.690;9.016;2023-02-17T03:30:51;96820.50;;;7.70;64.67
706;BME280;21234;48.690;9.016;2023-02-17T03:33:18;96827.81;;;7.69;65.03
706;BME280;21234;48.690;9.016;2023-02-17T03:35:46;96841.16;;;7.64;65.29
706;BME280;21234;48.690;9.016;2023-02-17T03:38:12;96838.88;;;7.61;65.33
706;BME280;21234;48.690;9.016;2023-02-17T03:40:39;96846.16;;;7.61;65.66
706;BME280;21234;48.690;9.016;2023-02-17T03:43:06;96843.06;;;7.57;65.84
706;BME280;21234;48.690;9.016;2023-02-17T03:45:34;96843.28;;;7.56;65.79
706;BME280;21234;48.690;9.016;2023-02-17T03:48:01;96850.78;;;7.54;65.79
706;BME280;21234;48.690;9.016;2023-02-17T03:50:29;96847.25;;;7.53;66.02
706;BME280;21234;48.690;9.016;2023-02-17T03:52:57;96848.91;;;7.54;65.73
706;BME280;21234;48.690;9.016;2023-02-17T03:55:23;96850.16;;;7.52;65.85
706;BME280;21234;48.690;9.016;2023-02-17T03:57:50;96852.47;;;7.48;66.18
706;BME280;21234;48.690;9.016;2023-02-17T04:00:18;96846.81;;;7.56;66.07
706;BME280;21234;48.690;9.016;2023-02-17T04:02:44;96854.72;;;7.58;66.09
706;BME280;21234;48.690;9.016;2023-02-17T04:05:11;96856.38;;;7.59;66.38
706;BME280;21234;48.690;9.016;2023-02-17T04:07:38;96856.78;;;7.62;66.40
706;BME280;21234;48.690;9.016;2023-02-17T04:10:07;96854.25;;;7.67;66.37
706;BME280;21234;48.690;9.016;2023-02-17T04:12:34;96849.66;;;7.68;66.19
706;BME280;21234;48.690;9.016;2023-02-17T04:15:00;96855.91;;;7.68;66.35
706;BME280;21234;48.690;9.016;2023-02-17T04:17:27;96855.06;;;7.68;66.76
706;BME280;21234;48.690;9.016;2023-02-17T04:19:53;96854.03;;;7.69;66.69
706;BME280;21234;48.690;9.016;2023-02-17T04:22:20;96862.38;;;7.67;66.97
706;BME280;21234;48.690;9.016;2023-02-17T04:24:47;96867.38;;;7.64;67.29
706;BME280;21234;48.690;9.016;2023-02-17T04:27:15;96865.97;;;7.55;67.77
706;BME280;21234;48.690;9.016;2023-02-17T04:29:42;96872.41;;;7.54;68.11
706;BME280;21234;48.690;9.016;2023-02-17T04:32:08;96866.59;;;7.57;67.99
706;BME280;21234;48.690;9.016;2023-02-17T04:34:35;96869.91;;;7.59;68.43
706;BME280;21234;48.690;9.016;2023-02-17T04:37:02;96875.31;;;7.59;68.21
706;BME280;21234;48.690;9.016;2023-02-17T04:39:28;96864.06;;;7.62;68.11
706;BME280;21234;48.690;9.016;2023-02-17T04:41:55;96868.44;;;7.63;68.77
706;BME280;21234;48.690;9.016;2023-02-17T04:44:23;96859.25;;;7.64;68.87
706;BME280;21234;48.690;9.016;2023-02-17T04:46:50;96854.03;;;7.69;68.65
706;BME280;21234;48.690;9.016;2023-02-17T04:49:16;96856.75;;;7.69;69.11
706;BME280;21234;48.690;9.016;2023-02-17T04:51:43;96844.00;;;7.76;68.85
706;BME280;21234;48.690;9.016;2023-02-17T04:54:10;96846.53;;;7.71;69.29
706;BME280;21234;48.690;9.016;2023-02-17T04:56:36;96833.31;;;7.81;68.92
706;BME280;21234;48.690;9.016;2023-02-17T04:59:03;96831.44;;;7.82;69.23
706;BME280;21234;48.690;9.016;2023-02-17T05:01:31;96835.59;;;7.84;69.71
706;BME280;21234;48.690;9.016;2023-02-17T05:03:58;96834.72;;;7.90;70.05
706;BME280;21234;48.690;9.016;2023-02-17T05:06:24;96833.50;;;7.86;70.57
706;BME280;21234;48.690;9.016;2023-02-17T05:08:51;96833.94;;;7.83;71.63
706;BME280;21234;48.690;9.016;2023-02-17T05:11:18;96828.53;;;7.83;72.42
706;BME280;21234;48.690;9.016;2023-02-17T05:13:45;96823.50;;;7.87;72.92
706;BME280;21234;48.690;9.016;2023-02-17T05:16:11;96815.59;;;7.85;73.20
706;BME280;21234;48.690;9.016;2023-02-17T05:18:39;96811.78;;;7.93;73.56
706;BME280;21234;48.690;9.016;2023-02-17T05:21:06;96823.06;;;7.90;73.86
706;BME280;21234;48.690;9.016;2023-02-17T05:23:33;96814.13;;;7.89;73.98
706;BME280;21234;48.690;9.016;2023-02-17T05:26:05;96815.38;;;7.87;74.49
706;BME280;21234;48.690;9.016;2023-02-17T05:28:32;96819.31;;;7.91;74.60
706;BME280;21234;48.690;9.016;2023-02-17T05:30:59;96824.06;;;7.95;75.15
706;BME280;21234;48.690;9.016;2023-02-17T05:33:26;96821.75;;;7.99;74.84
706;BME280;21234;48.690;9.016;2023-02-17T05:35:54;96824.91;;;7.96;75.25
706;BME280;21234;48.690;9.016;2023-02-17T05:38:21;96831.13;;;7.96;75.73
706;BME280;21234;48.690;9.016;2023-02-17T05:40:48;96830.31;;;7.96;75.97
706;BME280;21234;48.690;9.016;2023-02-17T05:43:15;96828.66;;;7.95;76.18
706;BME280;21234;48.690;9.016;2023-02-17T05:45:42;96832.19;;;7.95;76.06
706;BME280;21234;48.690;9.016;2023-02-17T05:48:09;96835.50;;;7.97;76.17
706;BME280;21234;48.690;9.016;2023-02-17T05:50:35;96837.00;;;7.93;76.44
706;BME280;21234;48.690;9.016;2023-02-17T05:53:03;96832.63;;;7.92;76.75
706;BME280;21234;48.690;9.016;2023-02-17T05:55:30;96844.06;;;7.94;77.18
706;BME280;21234;48.690;9.016;2023-02-17T05:57:57;96843.63;;;7.97;77.08
706;BME280;21234;48.690;9.016;2023-02-17T06:00:24;96854.03;;;8.00;76.77
706;BME280;21234;48.690;9.016;2023-02-17T06:02:51;96851.75;;;7.97;77.25
706;BME280;21234;48.690;9.016;2023-02-17T06:05:18;96853.59;;;8.03;76.93
706;BME280;21234;48.690;9.016;2023-02-17T06:07:44;96857.34;;;8.02;77.01
706;BME280;21234;48.690;9.016;2023-02-17T06:10:12;96862.16;;;8.00;76.92
706;BME280;21234;48.690;9.016;2023-02-17T06:12:39;96865.03;;;8.05;77.20
706;BME280;21234;48.690;9.016;2023-02-17T06:15:06;96867.94;;;8.04;77.10
706;BME280;21234;48.690;9.016;2023-02-17T06:17:33;96870.03;;;8.02;77.75
706;BME280;21234;48.690;9.016;2023-02-17T06:20:00;96873.16;;;8.05;77.42
706;BME280;21234;48.690;9.016;2023-02-17T06:22:27;96870.88;;;8.02;77.66
706;BME280;21234;48.690;9.016;2023-02-17T06:24:53;96874.03;;;7.99;77.72
706;BME280;21234;48.690;9.016;2023-02-17T06:27:21;96874.84;;;8.00;77.86
706;BME280;21234;48.690;9.016;2023-02-17T06:29:48;96878.22;;;7.95;78.08
706;BME280;21234;48.690;9.016;2023-02-17T06:32:15;96886.78;;;7.92;78.44
706;BME280;21234;48.690;9.016;2023-02-17T06:34:42;96885.31;;;7.90;78.94
706;BME280;21234;48.690;9.016;2023-02-17T06:37:09;96882.63;;;7.90;79.12
706;BME280;21234;48.690;9.016;2023-02-17T06:39:36;96898.66;;;7.91;79.59
706;BME280;21234;48.690;9.016;2023-02-17T06:42:02;96894.06;;;7.92;79.66
706;BME280;21234;48.690;9.016;2023-02-17T06:44:31;96888.00;;;7.96;79.71
706;BME280;21234;48.690;9.016;2023-02-17T06:46:57;96891.31;;;7.98;79.84
706;BME280;21234;48.690;9.016;2023-02-17T06:49:24;96890.06;;;8.01;79.57
706;BME280;21234;48.690;9.016;2023-02-17T06:51:51;96888.16;;;8.01;79.80
706;BME280;21234;48.690;9.016;2023-02-17T06:54:18;96882.97;;;8.00;79.89
706;BME280;21234;48.690;9.016;2023-02-17T06:56:44;96883.81;;;8.00;79.92
706;BME280;21234;48.690;9.016;2023-02-17T06:59:11;96893.84;;;7.93;79.80
706;BME280;21234;48.690;9.016;2023-02-17T07:01:39;96891.31;;;7.98;80.06
706;BME280;21234;48.690;9.016;2023-02-17T07:04:06;96904.19;;;8.03;80.04
706;BME280;21234;48.690;9.016;2023-02-17T07:06:32;96904.19;;;8.03;79.68
706;BME280;21234;48.690;9.016;2023-02-17T07:08:59;96916.91;;;8.02;79.94
706;BME280;21234;48.690;9.016;2023-02-17T07:11:26;96906.91;;;8.03;80.25
706;BME280;21234;48.690;9.016;2023-02-17T07:13:55;96913.56;;;8.07;79.94
706;BME280;21234;48.690;9.016;2023-02-17T07:16:22;96908.13;;;8.07;80.34
706;BME280;21234;48.690;9.016;2023-02-17T07:18:50;96917.69;;;8.09;80.49
706;BME280;21234;48.690;9.016;2023-02-17T07:21:18;96916.44;;;8.12;80.60
706;BME280;21234;48.690;9.016;2023-02-17T07:23:45;96916.38;;;8.19;80.61
706;BME280;21234;48.690;9.016;2023-02-17T07:26:12;96921.56;;;8.20;80.84
706;BME280;21234;48.690;9.016;2023-02-17T07:28:40;96924.91;;;8.16;81.02
706;BME280;21234;48.690;9.016;2023-02-17T07:31:08;96928.03;;;8.19;81.56
706;BME280;21234;48.690;9.016;2023-02-17T07:33:35;96929.06;;;8.18;81.92
706;BME280;21234;48.690;9.016;2023-02-17T07:36:06;96925.31;;;8.19;82.12
706;BME280;21234;48.690;9.016;2023-02-17T07:38:33;96929.47;;;8.22;82.47
706;BME280;21234;48.690;9.016;2023-02-17T07:41:03;96924.88;;;8.22;82.38
706;BME280;21234;48.690;9.016;2023-02-17T07:43:30;96932.78;;;8.24;82.96
706;BME280;21234;48.690;9.016;2023-02-17T07:45:57;96927.59;;;8.22;83.16
706;BME280;21234;48.690;9.016;2023-02-17T07:48:24;96928.00;;;8.26;83.31
706;BME280;21234;48.690;9.016;2023-02-17T07:50:50;96916.28;;;8.32;82.96
706;BME280;21234;48.690;9.016;2023-02-17T07:53:18;96927.75;;;8.34;83.23
706;BME280;21234;48.690;9.016;2023-02-17T07:55:45;96934.00;;;8.34;83.23
706;BME280;21234;48.690;9.016;2023-02-17T07:58:12;96937.53;;;8.35;83.58
706;BME280;21234;48.690;9.016;2023-02-17T08:00:39;96943.78;;;8.35;84.21
706;BME280;21234;48.690;9.016;2023-02-17T08:03:06;96944.19;;;8.39;84.41
706;BME280;21234;48.690;9.016;2023-02-17T08:05:37;96950.44;;;8.39;84.29
706;BME280;21234;48.690;9.016;2023-02-17T08:08:04;96958.28;;;8.48;84.47
706;BME280;21234;48.690;9.016;2023-02-17T08:10:50;96958.44;;;8.53;84.29
706;BME280;21234;48.690;9.016;2023-02-17T08:13:34;96941.19;;;8.47;84.88
706;BME280;21234;48.690;9.016;2023-02-17T08:16:01;96941.56;;;8.51;85.01
706;BME280;21234;48.690;9.016;2023-02-17T08:18:27;96944.13;;;8.70;84.74
706;BME280;21234;48.690;9.016;2023-02-17T08:20:54;96944.09;;;8.77;83.99
706;BME280;21234;48.690;9.016;2023-02-17T08:23:21;96948.09;;;8.93;83.42
706;BME280;21234;48.690;9.016;2023-02-17T08:25:47;96948.81;;;9.06;83.15
706;BME280;21234;48.690;9.016;2023-02-17T08:28:15;96948.41;;;9.03;82.74
706;BME280;21234;48.690;9.016;2023-02-17T08:30:42;96937.72;;;9.08;83.05
706;BME280;21234;48.690;9.016;2023-02-17T08:33:09;96944.59;;;8.86;84.08
706;BME280;21234;48.690;9.016;2023-02-17T08:35:36;96944.59;;;8.86;84.81
706;BME280;21234;48.690;9.016;2023-02-17T08:38:02;96953.47;;;8.99;84.36
706;BME280;21234;48.690;9.016;2023-02-17T08:40:29;96961.75;;;9.04;84.32
706;BME280;21234;48.690;9.016;2023-02-17T08:42:55;96959.22;;;9.09;84.17
706;BME280;21234;48.690;9.016;2023-02-17T08:45:24;96947.53;;;9.09;84.26
706;BME280;21234;48.690;9.016;2023-02-17T08:47:51;96961.09;;;9.09;84.38
706;BME280;21234;48.690;9.016;2023-02-17T08:50:17;96954.13;;;9.13;84.49
706;BME280;21234;48.690;9.016;2023-02-17T08:52:44;96951.28;;;9.26;84.65
706;BME280;21234;48.690;9.016;2023-02-17T08:55:11;96948.41;;;9.21;84.75
706;BME280;21234;48.690;9.016;2023-02-17T08:57:38;96937.78;;;9.20;84.89
706;BME280;21234;48.690;9.016;2023-02-17T09:00:07;96946.81;;;9.14;85.36
706;BME280;21234;48.690;9.016;2023-02-17T09:02:36;96935.47;;;9.05;85.82
706;BME280;21234;48.690;9.016;2023-02-17T09:05:03;96936.53;;;9.04;86.15
706;BME280;21234;48.690;9.016;2023-02-17T09:07:30;96951.13;;;9.03;86.15
706;BME280;21234;48.690;9.016;2023-02-17T09:09:57;96951.63;;;8.93;86.63
706;BME280;21234;48.690;9.016;2023-02-17T09:12:23;96957.00;;;9.00;86.88
706;BME280;21234;48.690;9.016;2023-02-17T09:14:50;96948.47;;;8.96;86.83
706;BME280;21234;48.690;9.016;2023-02-17T09:17:17;96942.00;;;8.97;87.24
706;BME280;21234;48.690;9.016;2023-02-17T09:19:45;96937.78;;;9.01;86.91
706;BME280;21234;48.690;9.016;2023-02-17T09:22:12;96937.34;;;9.04;87.42
706;BME280;21234;48.690;9.016;2023-02-17T09:24:41;96946.69;;;9.08;87.45
706;BME280;21234;48.690;9.016;2023-02-17T09:27:08;96941.72;;;9.05;87.93
706;BME280;21234;48.690;9.016;2023-02-17T09:29:36;96923.03;;;8.97;88.50
706;BME280;21234;48.690;9.016;2023-02-17T09:32:05;96927.34;;;9.05;88.42
706;BME280;21234;48.690;9.016;2023-02-17T09:34:33;96933.41;;;9.00;88.47
706;BME280;21234;48.690;9.016;2023-02-17T09:37:02;96932.66;;;9.12;89.04
706;BME280;21234;48.690;9.016;2023-02-17T09:39:28;96927.47;;;9.10;89.18
706;BME280;21234;48.690;9.016;2023-02-17T09:41:55;96926.66;;;9.09;88.59
706;BME280;21234;48.690;9.016;2023-02-17T09:44:24;96927.41;;;9.17;88.50
706;BME280;21234;48.690;9.016;2023-02-17T09:46:56;96928.09;;;9.30;88.10
706;BME280;21234;48.690;9.016;2023-02-17T09:49:31;96939.47;;;9.39;88.01
706;BME280;21234;48.690;9.016;2023-02-17T09:52:06;96946.69;;;9.45;87.63
706;BME280;21234;48.690;9.016;2023-02-17T09:54:40;96943.91;;;9.52;87.53
706;BME280;21234;48.690;9.016;2023-02-17T09:57:13;96950.53;;;9.56;87.59
706;BME280;21234;48.690;9.016;2023-02-17T09:59:46;96946.63;;;9.52;87.31
706;BME280;21234;48.690;9.016;2023-02-17T10:02:19;96958.31;;;9.70;87.35
706;BME280;21234;48.690;9.016;2023-02-17T10:04:51;96944.47;;;9.90;86.31
706;BME280;21234;48.690;9.016;2023-02-17T10:07:24;96954.31;;;10.03;85.88
706;BME280;21234;48.690;9.016;2023-02-17T10:09:58;96955.41;;;10.14;84.78
706;BME280;21234;48.690;9.016;2023-02-17T10:12:31;96961.91;;;10.31;84.36
706;BME280;21234;48.690;9.016;2023-02-17T10:15:06;96955.88;;;10.10;84.80
706;BME280;21234;48.690;9.016;2023-02-17T10:17:38;96961.53;;;10.09;85.32
706;BME280;21234;48.690;9.016;2023-02-17T10:20:08;96971.09;;;10.00;86.09
706;BME280;21234;48.690;9.016;2023-02-17T10:22:39;96982.84;;;9.94;86.63
706;BME280;21234;48.690;9.016;2023-02-17T10:25:13;96970.78;;;9.90;86.73
706;BME280;21234;48.690;9.016;2023-02-17T10:27:42;96967.56;;;9.81;87.80
706;BME280;21234;48.690;9.016;2023-02-17T10:30:19;96980.50;;;9.97;87.62
706;BME280;21234;48.690;9.016;2023-02-17T10:32:58;96981.13;;;9.99;87.09
706;BME280;21234;48.690;9.016;2023-02-17T10:35:36;96983.41;;;10.14;86.76
706;BME280;21234;48.690;9.016;2023-02-17T10:38:14;96979.56;;;10.22;86.21
706;BME280;21234;48.690;9.016;2023-02-17T10:40:44;96971.47;;;10.33;85.97
706;BME280;21234;48.690;9.016;2023-02-17T10:43:14;96976.34;;;10.43;85.16
706;BME280;21234;48.690;9.016;2023-02-17T10:45:45;96962.81;;;10.66;84.68
706;BME280;21234;48.690;9.016;2023-02-17T10:48:15;96963.63;;;10.78;83.44
706;BME280;21234;48.690;9.016;2023-02-17T10:50:44;96963.50;;;10.73;83.79
706;BME280;21234;48.690;9.016;2023-02-17T10:53:14;96950.75;;;10.74;83.44
706;BME280;21234;48.690;9.016;2023-02-17T10:55:51;96942.81;;;10.72;83.70
706;BME280;21234;48.690;9.016;2023-02-17T10:58:22;96951.94;;;10.78;83.38
706;BME280;21234;48.690;9.016;2023-02-17T11:00:52;96959.75;;;10.86;83.21
706;BME280;21234;48.690;9.016;2023-02-17T11:03:21;96951.22;;;11.06;82.89
706;BME280;21234;48.690;9.016;2023-02-17T11:05:53;96955.28;;;11.03;82.30
706;BME280;21234;48.690;9.016;2023-02-17T11:08:28;96953.50;;;10.97;82.56
706;BME280;21234;48.690;9.016;2023-02-17T11:11:01;96949.59;;;11.17;82.43
706;BME280;21234;48.690;9.016;2023-02-17T11:13:33;96966.50;;;11.30;81.87
706;BME280;21234;48.690;9.016;2023-02-17T11:16:00;96949.31;;;11.41;81.69
706;BME280;21234;48.690;9.016;2023-02-17T11:18:31;96942.38;;;11.74;79.88
706;BME280;21234;48.690;9.016;2023-02-17T11:21:03;96935.63;;;11.88;79.75
706;BME280;21234;48.690;9.016;2023-02-17T11:23:32;96930.38;;;11.98;78.03
706;BME280;21234;48.690;9.016;2023-02-17T11:26:01;96938.22;;;12.23;77.04
706;BME280;21234;48.690;9.016;2023-02-17T11:28:28;96936.94;;;12.14;77.32
706;BME280;21234;48.690;9.016;2023-02-17T11:30:57;96948.78;;;12.20;77.91
706;BME280;21234;48.690;9.016;2023-02-17T11:33:29;96939.72;;;12.02;77.71
706;BME280;21234;48.690;9.016;2023-02-17T11:35:56;96935.97;;;11.92;78.16
706;BME280;21234;48.690;9.016;2023-02-17T11:38:25;96933.03;;;11.70;79.39
706;BME280;21234;48.690;9.016;2023-02-17T11:40:56;96931.28;;;11.64;79.92
706;BME280;21234;48.690;9.016;2023-02-17T11:43:23;96936.28;;;11.43;80.74
706;BME280;21234;48.690;9.016;2023-02-17T11:46:01;96936.34;;;11.32;81.64
706;BME280;21234;48.690;9.016;2023-02-17T11:48:58;96930.19;;;11.25;81.89
706;BME280;21234;48.690;9.016;2023-02-17T11:51:35;96932.78;;;11.20;82.18
706;BME280;21234;48.690;9.016;2023-02-17T11:54:14;96923.31;;;11.10;83.08
706;BME280;21234;48.690;9.016;2023-02-17T11:56:50;96921.81;;;11.03;83.59
706;BME280;21234;48.690;9.016;2023-02-17T11:59:33;96924.88;;;10.95;84.00
706;BME280;21234;48.690;9.016;2023-02-17T12:02:13;96927.94;;;10.87;84.67
706;BME280;21234;48.690;9.016;2023-02-17T12:04:51;96930.06;;;10.85;84.91
706;BME280;21234;48.690;9.016;2023-02-17T12:07:30;96937.63;;;10.83;85.34
706;BME280;21234;48.690;9.016;2023-02-17T12:10:02;96938.59;;;10.88;85.32
706;BME280;21234;48.690;9.016;2023-02-17T12:12:38;96947.81;;;10.87;85.24
706;BME280;21234;48.690;9.016;2023-02-17T12:15:26;96937.28;;;10.79;85.79
706;BME280;21234;48.690;9.016;2023-02-17T12:18:02;96943.66;;;10.85;85.97
706;BME280;21234;48.690;9.016;2023-02-17T12:20:40;96950.63;;;10.81;86.30
706;BME280;21234;48.690;9.016;2023-02-17T12:23:33;96950.16;;;10.84;85.82
706;BME280;21234;48.690;9.016;2023-02-17T12:26:12;96948.50;;;10.83;86.05
706;BME280;21234;48.690;9.016;2023-02-17T12:28:52;96941.66;;;10.80;86.39
706;BME280;21234;48.690;9.016;2023-02-17T12:31:36;96946.63;;;10.83;86.41
706;BME280;21234;48.690;9.016;2023-02-17T12:34:14;96945.91;;;10.88;86.13
706;BME280;21234;48.690;9.016;2023-02-17T12:36:43;96937.75;;;10.88;85.96
706;BME280;21234;48.690;9.016;2023-02-17T12:39:15;96931.25;;;10.89;85.82
706;BME280;21234;48.690;9.016;2023-02-17T12:41:46;96916.47;;;10.96;85.53
706;BME280;21234;48.690;9.016;2023-02-17T12:44:17;96922.28;;;11.00;85.28
706;BME280;21234;48.690;9.016;2023-02-17T12:46:49;96917.28;;;11.08;84.72
706;BME280;21234;48.690;9.016;2023-02-17T12:49:20;96916.69;;;11.06;84.60
706;BME280;21234;48.690;9.016;2023-02-17T12:51:51;96916.09;;;11.16;84.28
706;BME280;21234;48.690;9.016;2023-02-17T12:54:25;96919.28;;;11.25;83.88
706;BME280;21234;48.690;9.016;2023-02-17T12:57:01;96905.81;;;11.30;83.67
706;BME280;21234;48.690;9.016;2023-02-17T12:59:34;96903.09;;;11.18;83.84
706;BME280;21234;48.690;9.016;2023-02-17T13:02:04;96904.25;;;11.22;84.43
706;BME280;21234;48.690;9.016;2023-02-17T13:04:32;96912.91;;;11.31;83.53
706;BME280;21234;48.690;9.016;2023-02-17T13:07:23;96912.50;;;11.39;83.28
706;BME280;21234;48.690;9.016;2023-02-17T13:09:53;96907.88;;;11.39;83.25
706;BME280;21234;48.690;9.016;2023-02-17T13:12:36;96915.16;;;11.34;83.45
706;BME280;21234;48.690;9.016;2023-02-17T13:15:25;96906.63;;;11.30;83.80
706;BME280;21234;48.690;9.016;2023-02-17T13:17:54;96912.06;;;11.30;84.23
706;BME280;21234;48.690;9.016;2023-02-17T13:23:30;96914.19;;;11.28;84.13
706;BME280;21234;48.690;9.016;2023-02-17T13:26:12;96916.22;;;11.21;84.88
706;BME280;21234;48.690;9.016;2023-02-17T13:28:41;96920.72;;;11.16;85.28
706;BME280;21234;48.690;9.016;2023-02-17T13:31:12;96917.63;;;11.12;85.51
706;BME280;21234;48.690;9.016;2023-02-17T13:33:45;96924.84;;;11.18;85.60
706;BME280;21234;48.690;9.016;2023-02-17T13:36:15;96916.09;;;11.16;85.81
706;BME280;21234;48.690;9.016;2023-02-17T13:38:52;96923.66;;;11.26;85.70
706;BME280;21234;48.690;9.016;2023-02-17T13:41:21;96916.94;;;11.28;85.86
706;BME280;21234;48.690;9.016;2023-02-17T13:43:47;96917.16;;;11.27;85.55
706;BME280;21234;48.690;9.016;2023-02-17T13:46:19;96921.06;;;11.19;85.96
706;BME280;21234;48.690;9.016;2023-02-17T13:48:57;96921.19;;;11.36;85.45
706;BME280;21234;48.690;9.016;2023-02-17T13:51:26;96912.03;;;11.54;84.99
706;BME280;21234;48.690;9.016;2023-02-17T13:53:53;96921.66;;;12.13;81.98